Terminal Aerodrome Forecast
Issued by NWS

Current Version | Previous Version | Text Only | Print | Product List | Glossary On
Versions: 1 2 3 4 5 6 7 8 9 10 11 12 13
000
FTUS44 KEPZ 240500
TAFDMN
TAF
KDMN 240520Z 2406/2506 34010KT P6SM FEW250
     FM241700 28010KT P6SM SKC
     FM250400 06012KT P6SM SKC=

USA.gov is the U.S. government's official web portal to all federal, state and local government web resources and services.